Decoded Metar for KOTH (NORTH BEND in OR, USA) (IATA:OTH) | Meteo·Mobile Aviation Weather
aviador You're here:

KOTH Decoded Metar

NORTH BEND in OR, USA
Report Time2018-09-20 01:56:00
UTC Time2018-09-20 02:14:52
Flight Rules mvfr MVFR
Wind360° at 07 kt
W.Decomp.*RWY 31: 5.9 kt HW 3.7 kt RCW
RWY 04: 3.7 kt HW 5.9 kt LCW
Visibility9999 m
Phenomena:N/A
Clouds:Broken 017 Hf
Expected CloudBase > 1,200 ft AGL from Temp-Dew spread
Ceiling1,700 ft
Temp16°C (ISA +1)
Dew Point13°C (83% RH)
AAT14.4°C
QNH1021 hPa
Density Alt66 ft
Elevation13 ft
Report Wrong Elevation
Raw Report
KOTH 200156Z 36007KT 10SM BKN017 16/13 A3014 RMK AO2 SLP206
T01560133=

Extra information for KOTH:More info

Metar Taf Metar & Taf Last 4 Metars F.Rules Stats Wind Profile Meteogram Temp Stats Airport Information Weather charts Add Link Nearby VenuesMetar ALERT Operation Metar Decoded Social comments

AIRNAV info for KOTH